createdAt,value
2018-11-22T00:00:30.388Z,26.00
2018-11-22T00:03:02.735Z,26.80
2018-11-22T00:05:33.964Z,25.90
2018-11-22T00:08:05.339Z,25.00
2018-11-22T00:10:36.595Z,26.20
2018-11-22T00:13:08.154Z,25.57
2018-11-22T00:15:39.851Z,25.70
2018-11-22T00:18:11.676Z,26.35
2018-11-22T00:20:42.732Z,25.27
2018-11-22T00:23:13.671Z,25.00
2018-11-22T00:25:44.340Z,24.33
2018-11-22T00:28:33.750Z,24.90
2018-11-22T00:31:04.999Z,24.33
2018-11-22T00:33:36.500Z,24.27
2018-11-22T00:36:08.407Z,24.43
2018-11-22T00:38:39.085Z,24.57
2018-11-22T00:41:09.907Z,26.70
2018-11-22T00:43:41.709Z,25.32
2018-11-22T00:46:13.136Z,24.37
2018-11-22T00:48:44.506Z,25.45
2018-11-22T00:51:16.395Z,24.05
2018-11-22T00:53:47.679Z,24.20
2018-11-22T00:56:18.801Z,24.50
2018-11-22T01:01:46.643Z,24.30
2018-11-22T01:04:16.057Z,23.43
2018-11-22T01:06:47.357Z,24.47
2018-11-22T01:09:18.297Z,26.97
2018-11-22T01:11:50.093Z,25.57
2018-11-22T01:14:21.879Z,24.50
2018-11-22T01:16:52.898Z,23.62
2018-11-22T01:19:24.542Z,23.73
2018-11-22T01:21:55.872Z,24.07
2018-11-22T01:24:27.114Z,25.48
2018-11-22T01:26:58.979Z,24.30
2018-11-22T01:29:30.329Z,24.65
2018-11-22T01:32:02.021Z,23.90
2018-11-22T01:34:33.744Z,25.30
2018-11-22T01:37:04.840Z,24.73
2018-11-22T01:39:35.900Z,23.12
2018-11-22T01:42:07.685Z,24.23
2018-11-22T01:44:38.677Z,22.83
2018-11-22T01:47:10.188Z,24.73
2018-11-22T01:49:41.885Z,25.40
2018-11-22T01:52:12.867Z,24.30
2018-11-22T01:54:43.829Z,22.77
2018-11-22T01:57:15.315Z,23.32
2018-11-22T01:59:47.141Z,22.23
2018-11-22T02:02:28.668Z,23.67
2018-11-22T02:05:00.621Z,22.63
2018-11-22T02:07:31.665Z,23.60
2018-11-22T02:10:03.885Z,22.47
2018-11-22T02:12:54.091Z,23.67
2018-11-22T02:15:26.745Z,23.53
2018-11-22T02:17:57.857Z,24.57
2018-11-22T02:20:28.921Z,23.93
2018-11-22T02:23:00.752Z,23.85
2018-11-22T02:25:31.872Z,24.83
2018-11-22T02:28:03.362Z,23.23
2018-11-22T02:30:34.379Z,24.27
2018-11-22T02:33:06.398Z,23.87
2018-11-22T02:35:38.317Z,24.23
2018-11-22T02:38:10.029Z,23.03
2018-11-22T02:40:42.276Z,25.40
2018-11-22T02:43:14.034Z,24.00
2018-11-22T02:45:45.133Z,22.60
2018-11-22T02:48:16.336Z,24.60
2018-11-22T02:50:47.521Z,23.17
2018-11-22T02:53:18.576Z,23.10
2018-11-22T02:55:49.198Z,22.83
2018-11-22T02:58:21.094Z,24.05
2018-11-22T03:00:52.629Z,23.18
2018-11-22T03:03:24.165Z,25.50
2018-11-22T03:05:55.990Z,24.47
2018-11-22T03:08:28.084Z,24.12
2018-11-22T03:10:59.082Z,25.20
2018-11-22T03:13:31.228Z,23.47
2018-11-22T03:16:02.921Z,23.53
2018-11-22T03:18:34.886Z,23.07
2018-11-22T03:21:06.240Z,24.65
2018-11-22T03:23:38.134Z,23.55
2018-11-22T03:26:09.422Z,23.90
2018-11-22T03:28:40.623Z,23.40
2018-11-22T03:31:11.717Z,23.53
2018-11-22T03:33:42.828Z,24.40
2018-11-22T03:36:14.357Z,23.17
2018-11-22T03:38:45.832Z,21.87
2018-11-22T03:41:17.169Z,22.90
2018-11-22T03:43:48.815Z,23.23
2018-11-22T03:46:20.670Z,22.45
2018-11-22T03:48:51.835Z,24.27
2018-11-22T03:51:23.690Z,21.93
2018-11-22T03:53:55.073Z,22.97
2018-11-22T03:56:26.929Z,24.23
2018-11-22T03:58:59.273Z,24.35
2018-11-22T04:01:31.285Z,22.27
2018-11-22T04:04:02.784Z,22.67
2018-11-22T04:06:34.251Z,24.30
2018-11-22T04:09:07.649Z,21.40
2018-11-22T04:11:57.174Z,23.47
2018-11-22T04:14:29.824Z,23.75
2018-11-22T04:17:00.895Z,21.17
2018-11-22T04:19:32.625Z,22.32
2018-11-22T04:22:03.793Z,22.70
2018-11-22T04:24:35.342Z,24.27
2018-11-22T04:27:06.510Z,22.27
2018-11-22T04:29:38.119Z,21.83
2018-11-22T04:32:09.500Z,22.15
2018-11-22T04:34:40.805Z,22.20
2018-11-22T04:37:12.025Z,21.70
2018-11-22T04:39:43.929Z,22.50
2018-11-22T04:42:34.276Z,21.15
2018-11-22T04:45:05.739Z,22.07
2018-11-22T04:47:37.537Z,20.40
2018-11-22T04:50:10.658Z,20.30
2018-11-22T04:52:42.136Z,21.87
2018-11-22T04:55:33.079Z,20.00
2018-11-22T04:58:05.716Z,20.27
2018-11-22T05:00:36.706Z,21.57
2018-11-22T05:03:07.871Z,21.63
2018-11-22T05:05:57.931Z,21.90
2018-11-22T05:08:29.315Z,21.85
2018-11-22T05:11:00.396Z,25.47
2018-11-22T05:13:31.699Z,27.93
2018-11-22T05:16:21.649Z,31.70
2018-11-22T05:18:53.722Z,29.50
2018-11-22T05:21:24.965Z,28.93
2018-11-22T05:23:55.901Z,27.95
2018-11-22T05:26:27.708Z,31.05
2018-11-22T05:28:58.419Z,29.43
2018-11-22T05:31:30.409Z,31.07
2018-11-22T05:34:02.430Z,33.63
2018-11-22T05:36:34.564Z,34.60
2018-11-22T05:39:25.449Z,35.65
2018-11-22T05:42:00.565Z,31.60
2018-11-22T05:44:34.507Z,29.33
2018-11-22T05:47:24.362Z,34.00
2018-11-22T05:49:56.833Z,30.27
2018-11-22T05:52:28.290Z,27.70
2018-11-22T05:54:59.318Z,27.57
2018-11-22T05:57:30.775Z,31.17
2018-11-22T06:00:01.886Z,29.73
2018-11-22T06:02:33.262Z,25.35
2018-11-22T06:05:05.250Z,25.07
2018-11-22T06:07:37.015Z,21.53
2018-11-22T06:10:10.644Z,23.52
2018-11-22T06:12:42.139Z,22.23
2018-11-22T06:15:13.856Z,31.83
2018-11-22T06:17:45.384Z,28.42
2018-11-22T06:20:18.213Z,25.50
2018-11-22T06:22:49.740Z,25.87
2018-11-22T06:25:21.864Z,26.13
2018-11-22T06:27:53.498Z,24.57
2018-11-22T06:30:26.651Z,27.20
2018-11-22T06:32:58.854Z,25.00
2018-11-22T06:35:31.036Z,22.43
2018-11-22T06:38:02.466Z,21.70
2018-11-22T06:40:33.878Z,24.67
2018-11-22T06:43:05.314Z,22.58
2018-11-22T06:45:36.709Z,22.17
2018-11-22T06:48:07.724Z,23.60
2018-11-22T06:50:39.246Z,22.80
2018-11-22T06:53:11.115Z,25.95
2018-11-22T06:55:42.593Z,25.02
2018-11-22T06:58:14.062Z,24.03
2018-11-22T07:00:45.348Z,24.18
2018-11-22T07:03:16.781Z,19.87
2018-11-22T07:05:47.791Z,20.53
2018-11-22T07:08:19.335Z,20.83
2018-11-22T07:10:50.881Z,20.47
2018-11-22T07:13:22.468Z,18.00
2018-11-22T07:15:53.451Z,18.10
2018-11-22T07:18:24.597Z,18.87
2018-11-22T07:21:14.528Z,21.77
2018-11-22T07:24:03.896Z,20.47
2018-11-22T07:26:35.360Z,21.57
2018-11-22T07:29:05.963Z,22.20
2018-11-22T07:31:37.303Z,21.63
2018-11-22T07:34:09.529Z,27.47
2018-11-22T07:36:41.281Z,27.80
2018-11-22T07:39:13.469Z,21.57
2018-11-22T07:41:44.985Z,23.10
2018-11-22T07:44:16.347Z,20.67
2018-11-22T07:46:47.702Z,21.47
2018-11-22T07:49:19.138Z,23.30
2018-11-22T07:51:51.014Z,27.70
2018-11-22T07:54:22.077Z,25.90
2018-11-22T07:56:53.003Z,28.03
2018-11-22T07:59:25.292Z,23.30
2018-11-22T08:01:56.499Z,20.90
2018-11-22T08:04:28.058Z,22.60
2018-11-22T08:06:59.849Z,24.53
2018-11-22T08:09:31.616Z,24.57
2018-11-22T08:12:03.245Z,22.40
2018-11-22T08:14:34.614Z,24.80
2018-11-22T08:17:05.747Z,24.40
2018-11-22T08:19:36.842Z,23.40
2018-11-22T08:22:08.570Z,23.57
2018-11-22T08:24:59.149Z,23.38
2018-11-22T08:30:16.222Z,24.27
2018-11-22T08:32:52.584Z,26.97
2018-11-22T08:35:19.840Z,24.37
2018-11-22T08:37:51.626Z,23.60
2018-11-22T08:40:27.124Z,22.40
2018-11-22T08:42:59.646Z,25.43
2018-11-22T08:45:31.792Z,23.83
2018-11-22T08:48:03.342Z,22.43
2018-11-22T08:50:34.727Z,24.30
2018-11-22T08:53:06.751Z,23.93
2018-11-22T08:55:37.521Z,21.83
2018-11-22T08:58:08.775Z,21.73
2018-11-22T09:00:40.343Z,19.60
2018-11-22T09:03:11.925Z,18.97
2018-11-22T09:05:44.118Z,20.60
2018-11-22T09:08:34.156Z,24.40
2018-11-22T09:11:05.671Z,25.17
2018-11-22T09:13:37.079Z,20.80
2018-11-22T09:16:08.591Z,22.45
2018-11-22T09:18:39.339Z,24.07
2018-11-22T09:21:10.192Z,22.37
2018-11-22T09:23:41.809Z,18.85
2018-11-22T09:26:13.229Z,22.07
2018-11-22T09:29:03.509Z,21.90
2018-11-22T09:31:34.607Z,20.40
2018-11-22T09:34:05.218Z,23.23
2018-11-22T09:36:37.051Z,22.35
2018-11-22T09:39:12.661Z,20.97
2018-11-22T09:41:44.347Z,22.23
2018-11-22T09:44:15.612Z,19.20
2018-11-22T09:46:47.094Z,21.27
2018-11-22T09:49:38.452Z,21.23
2018-11-22T09:52:09.764Z,24.50
2018-11-22T09:54:40.793Z,26.00
2018-11-22T09:57:11.788Z,22.37
2018-11-22T10:00:01.636Z,23.47
2018-11-22T10:02:32.680Z,24.57
2018-11-22T10:05:04.272Z,22.27
2018-11-22T10:07:36.128Z,26.77
2018-11-22T10:10:08.456Z,24.80
2018-11-22T10:12:40.181Z,26.13
2018-11-22T10:15:30.896Z,27.82
2018-11-22T10:18:03.214Z,24.85
2018-11-22T10:20:34.596Z,24.82
2018-11-22T10:23:05.534Z,23.70
2018-11-22T10:25:55.772Z,23.47
2018-11-22T10:28:26.874Z,23.40
2018-11-22T10:30:58.738Z,23.05
2018-11-22T10:33:29.791Z,33.67
2018-11-22T10:36:00.395Z,25.57
2018-11-22T10:38:31.990Z,23.97
2018-11-22T10:41:22.064Z,23.73
2018-11-22T10:43:54.062Z,22.70
2018-11-22T10:46:25.361Z,24.57
2018-11-22T10:48:57.504Z,22.27
2018-11-22T10:51:29.547Z,20.33
2018-11-22T10:54:00.274Z,22.17
2018-11-22T10:56:31.819Z,22.17
2018-11-22T10:59:03.810Z,21.93
2018-11-22T11:01:54.175Z,23.45
2018-11-22T11:04:43.891Z,23.03
2018-11-22T11:07:34.294Z,23.00
2018-11-22T11:10:05.712Z,23.77
2018-11-22T11:12:36.940Z,22.33
2018-11-22T11:15:09.527Z,20.48
2018-11-22T11:17:41.214Z,24.13
2018-11-22T11:20:13.496Z,23.70
2018-11-22T11:22:44.757Z,21.73
2018-11-22T11:25:15.707Z,20.73
2018-11-22T11:27:46.815Z,22.23
2018-11-22T11:30:19.493Z,24.90
2018-11-22T11:32:51.330Z,23.30
2018-11-22T11:35:24.103Z,21.17
2018-11-22T11:37:55.640Z,22.23
2018-11-22T11:40:28.223Z,22.03
2018-11-22T11:42:59.390Z,21.62
2018-11-22T11:45:48.070Z,23.23
2018-11-22T11:48:20.540Z,23.87
2018-11-22T11:50:51.655Z,23.67
2018-11-22T11:53:27.131Z,23.12
2018-11-22T11:55:53.786Z,21.70
2018-11-22T11:58:25.714Z,20.40
2018-11-22T12:00:56.783Z,21.73
2018-11-22T12:03:28.150Z,23.17
2018-11-22T12:05:59.390Z,24.30
2018-11-22T12:08:30.460Z,25.10
2018-11-22T12:11:12.050Z,28.17
2018-11-22T12:13:43.837Z,28.70
2018-11-22T12:16:14.896Z,22.90
2018-11-22T12:19:04.899Z,24.05
2018-11-22T12:21:36.272Z,23.98
2018-11-22T12:24:07.411Z,20.73
2018-11-22T12:26:38.797Z,17.93
2018-11-22T12:29:09.826Z,21.00
2018-11-22T12:31:41.359Z,21.57
2018-11-22T12:34:31.063Z,21.13
2018-11-22T12:37:20.828Z,21.87
2018-11-22T12:39:52.035Z,23.87
2018-11-22T12:42:23.335Z,24.30
2018-11-22T12:45:02.335Z,23.80
2018-11-22T12:47:34.110Z,24.10
2018-11-22T12:50:05.476Z,23.10
2018-11-22T12:52:36.934Z,23.07
2018-11-22T12:55:10.278Z,20.02
2018-11-22T12:57:41.151Z,22.20
2018-11-22T13:00:13.875Z,22.50
2018-11-22T13:02:46.489Z,25.40
2018-11-22T13:05:19.064Z,24.03
2018-11-22T13:07:50.029Z,23.87
2018-11-22T13:10:21.301Z,21.17
2018-11-22T13:12:52.310Z,20.90
2018-11-22T13:15:24.004Z,22.97
2018-11-22T13:17:56.194Z,25.70
2018-11-22T13:20:28.160Z,25.33
2018-11-22T13:22:59.392Z,23.30
2018-11-22T13:25:30.811Z,24.47
2018-11-22T13:28:02.231Z,24.52
2018-11-22T13:30:33.975Z,29.03
2018-11-22T13:33:05.939Z,29.47
2018-11-22T13:35:37.537Z,23.55
2018-11-22T13:38:08.716Z,26.37
2018-11-22T13:40:40.534Z,29.50
2018-11-22T13:43:11.702Z,34.17
2018-11-22T13:45:43.260Z,33.20
2018-11-22T13:48:34.203Z,30.30
2018-11-22T13:51:05.741Z,31.60
2018-11-22T13:53:37.560Z,28.40
2018-11-22T13:56:08.752Z,28.10
2018-11-22T13:58:40.177Z,29.53
2018-11-22T14:01:11.444Z,30.67
2018-11-22T14:03:43.399Z,30.83
2018-11-22T14:06:14.733Z,30.43
2018-11-22T14:08:45.786Z,27.33
2018-11-22T14:11:17.743Z,29.80
2018-11-22T14:13:49.011Z,28.63
2018-11-22T14:16:20.559Z,31.33
2018-11-22T14:18:51.368Z,28.13
2018-11-22T14:21:22.587Z,38.47
2018-11-22T14:23:53.229Z,36.80
2018-11-22T14:26:25.017Z,42.10
2018-11-22T14:28:56.179Z,40.27
2018-11-22T14:31:27.775Z,39.53
2018-11-22T14:33:58.467Z,30.40
2018-11-22T14:36:30.059Z,28.93
2018-11-22T14:39:01.460Z,33.80
2018-11-22T14:41:33.341Z,26.42
2018-11-22T14:46:39.910Z,34.13
2018-11-22T14:49:09.979Z,37.25
2018-11-22T14:51:47.555Z,34.88
2018-11-22T14:54:17.435Z,35.23
2018-11-22T14:56:47.489Z,36.07
2018-11-22T14:59:17.325Z,39.67
2018-11-22T15:01:47.512Z,36.60
2018-11-22T15:04:17.433Z,30.63
2018-11-22T15:06:47.538Z,28.07
2018-11-22T15:09:17.501Z,27.83
2018-11-22T15:11:48.599Z,33.25
2018-11-22T15:14:18.425Z,43.93
2018-11-22T15:16:48.314Z,42.63
2018-11-22T15:19:18.229Z,44.80
2018-11-22T15:21:48.349Z,47.25
2018-11-22T15:24:18.343Z,47.63
2018-11-22T15:26:48.314Z,36.57
2018-11-22T15:29:18.119Z,39.57
2018-11-22T15:31:48.091Z,34.60
2018-11-22T15:34:18.229Z,35.50
2018-11-22T15:36:48.293Z,38.60
2018-11-22T15:39:18.321Z,37.00
2018-11-22T15:41:48.445Z,39.53
2018-11-22T15:44:18.401Z,41.17
2018-11-22T15:46:48.282Z,39.13
2018-11-22T15:49:18.238Z,38.27
2018-11-22T15:51:48.312Z,34.65
2018-11-22T15:54:18.063Z,30.73
2018-11-22T15:56:47.982Z,32.90
2018-11-22T15:59:18.630Z,33.98
2018-11-22T16:01:48.317Z,30.47
2018-11-22T16:04:18.241Z,31.93
2018-11-22T16:06:48.240Z,33.55
2018-11-22T16:09:18.062Z,37.70
2018-11-22T16:11:48.183Z,36.75
2018-11-22T16:14:18.172Z,36.37
2018-11-22T16:16:48.212Z,37.57
2018-11-22T16:19:18.043Z,36.10
2018-11-22T16:21:47.994Z,34.87
2018-11-22T16:24:18.019Z,40.87
2018-11-22T16:26:48.158Z,46.25
2018-11-22T16:29:18.476Z,48.55
2018-11-22T16:31:48.334Z,39.97
2018-11-22T16:34:18.983Z,33.90
2018-11-22T16:36:49.129Z,35.80
2018-11-22T16:39:19.136Z,37.78
2018-11-22T16:41:49.190Z,37.73
2018-11-22T16:44:19.189Z,37.98
2018-11-22T16:46:49.240Z,39.60
2018-11-22T16:49:20.487Z,40.10
2018-11-22T16:51:50.196Z,42.50
2018-11-22T16:54:20.220Z,39.77
2018-11-22T16:56:49.983Z,40.12
2018-11-22T16:59:20.265Z,40.00
2018-11-22T17:01:50.512Z,40.67
2018-11-22T17:04:20.309Z,39.33
2018-11-22T17:06:50.270Z,38.40
2018-11-22T17:09:20.027Z,38.93
2018-11-22T17:11:49.995Z,36.17
2018-11-22T17:14:20.043Z,37.25
2018-11-22T17:16:50.154Z,35.33
2018-11-22T17:19:20.234Z,36.30
2018-11-22T17:21:51.788Z,37.60
2018-11-22T17:24:21.545Z,44.93
2018-11-22T17:26:51.417Z,52.77
2018-11-22T17:29:21.322Z,39.20
2018-11-22T17:31:51.375Z,43.27
2018-11-22T17:34:21.338Z,41.23
2018-11-22T17:36:51.418Z,43.37
2018-11-22T17:39:21.216Z,38.07
2018-11-22T17:41:51.102Z,39.27
2018-11-22T17:44:21.173Z,36.48
2018-11-22T17:46:50.974Z,36.57
2018-11-22T17:49:21.155Z,40.25
2018-11-22T17:51:51.251Z,39.87
2018-11-22T17:54:21.257Z,39.87
2018-11-22T17:56:51.701Z,37.67
2018-11-22T17:59:21.702Z,36.63
2018-11-22T18:01:51.473Z,35.63
2018-11-22T18:04:21.434Z,35.60
2018-11-22T18:06:51.414Z,38.07
2018-11-22T18:09:21.362Z,36.90
2018-11-22T18:11:51.248Z,40.77
2018-11-22T18:14:21.183Z,34.93
2018-11-22T18:16:51.063Z,36.90
2018-11-22T18:19:21.223Z,37.83
2018-11-22T18:21:51.269Z,37.10
2018-11-22T18:24:21.443Z,37.90
2018-11-22T18:26:52.521Z,38.42
2018-11-22T18:29:22.457Z,38.87
2018-11-22T18:31:52.290Z,37.27
2018-11-22T18:34:22.286Z,38.40
2018-11-22T18:36:52.233Z,38.13
2018-11-22T18:39:22.187Z,37.77
2018-11-22T18:41:51.977Z,38.33
2018-11-22T18:44:22.292Z,41.67
2018-11-22T18:46:51.966Z,41.17
2018-11-22T18:49:21.982Z,38.80
2018-11-22T18:51:52.090Z,39.73
2018-11-22T18:54:25.038Z,39.63
2018-11-22T18:56:55.414Z,40.95
2018-11-22T18:59:30.175Z,39.03
2018-11-22T19:02:00.461Z,31.10
2018-11-22T19:04:30.194Z,48.77
2018-11-22T19:07:00.085Z,42.47
2018-11-22T19:09:30.170Z,44.88
2018-11-22T19:12:00.106Z,54.87
2018-11-22T19:14:30.723Z,66.05
2018-11-22T19:17:00.499Z,61.53
2018-11-22T19:19:31.818Z,45.45
2018-11-22T19:22:01.538Z,40.37
2018-11-22T19:24:31.303Z,41.93
2018-11-22T19:27:01.406Z,41.63
2018-11-22T19:29:31.878Z,44.97
2018-11-22T19:32:01.962Z,53.05
2018-11-22T19:34:31.967Z,64.20
2018-11-22T19:37:02.499Z,53.28
2018-11-22T19:39:32.332Z,47.80
2018-11-22T19:42:02.343Z,48.00
2018-11-22T19:44:32.922Z,46.63
2018-11-22T19:47:03.070Z,47.00
2018-11-22T19:49:33.182Z,44.20
2018-11-22T19:52:04.760Z,50.92
2018-11-22T19:54:34.759Z,49.53
2018-11-22T19:57:04.832Z,53.03
2018-11-22T19:59:35.614Z,51.88
2018-11-22T20:02:05.737Z,48.43
2018-11-22T20:04:35.580Z,57.40
2018-11-22T20:07:05.965Z,71.13
2018-11-22T20:12:28.054Z,52.90
2018-11-22T20:14:58.710Z,52.13
2018-11-22T20:17:28.546Z,50.40
2018-11-22T20:19:58.410Z,55.57
2018-11-22T20:22:29.443Z,59.40
2018-11-22T20:24:59.187Z,43.60
2018-11-22T20:27:29.190Z,44.40
2018-11-22T20:29:59.272Z,41.85
2018-11-22T20:32:29.535Z,44.00
2018-11-22T20:34:59.302Z,42.50
2018-11-22T20:37:29.110Z,43.23
2018-11-22T20:40:00.484Z,42.98
2018-11-22T20:42:30.223Z,44.80
2018-11-22T20:45:00.111Z,47.33
2018-11-22T20:47:30.207Z,47.27
2018-11-22T20:50:00.435Z,49.67
2018-11-22T20:52:30.519Z,42.73
2018-11-22T20:55:00.394Z,42.13
2018-11-22T20:57:30.485Z,42.27
2018-11-22T21:00:00.393Z,40.23
2018-11-22T21:02:30.121Z,39.10
2018-11-22T21:05:12.320Z,40.40
2018-11-22T21:07:42.639Z,43.63
2018-11-22T21:10:14.806Z,41.40
2018-11-22T21:12:44.723Z,42.78
2018-11-22T21:15:17.015Z,44.97
2018-11-22T21:17:47.846Z,45.50
2018-11-22T21:20:18.861Z,42.03
2018-11-22T21:22:49.950Z,47.03
2018-11-22T21:25:21.065Z,49.38
2018-11-22T21:27:51.090Z,45.07
2018-11-22T21:30:25.948Z,45.17
2018-11-22T21:32:57.400Z,44.60
2018-11-22T21:35:27.780Z,44.87
2018-11-22T21:37:58.556Z,46.30
2018-11-22T21:40:29.045Z,45.70
2018-11-22T21:42:59.054Z,46.20
2018-11-22T21:45:29.914Z,43.07
2018-11-22T21:48:00.164Z,43.17
2018-11-22T21:50:30.700Z,45.87
2018-11-22T21:53:00.638Z,47.43
2018-11-22T21:55:31.050Z,46.93
2018-11-22T21:58:02.207Z,45.70
2018-11-22T22:00:39.363Z,46.47
2018-11-22T22:03:10.613Z,44.93
2018-11-22T22:05:41.002Z,44.00
2018-11-22T22:08:11.272Z,43.77
2018-11-22T22:10:41.185Z,50.97
2018-11-22T22:13:11.326Z,49.13
2018-11-22T22:15:41.497Z,50.50
2018-11-22T22:18:11.214Z,48.83
2018-11-22T22:20:41.286Z,50.45
2018-11-22T22:23:13.569Z,51.13
2018-11-22T22:25:41.564Z,46.27
2018-11-22T22:28:11.304Z,46.87
2018-11-22T22:30:41.291Z,41.53
2018-11-22T22:33:11.481Z,42.23
2018-11-22T22:35:41.230Z,41.50
2018-11-22T22:38:11.351Z,42.97
2018-11-22T22:40:46.213Z,41.97
2018-11-22T22:43:16.654Z,39.73
2018-11-22T22:45:46.423Z,41.23
2018-11-22T22:48:16.291Z,43.30
2018-11-22T22:50:46.471Z,41.23
2018-11-22T22:53:16.402Z,43.13
2018-11-22T22:55:46.406Z,41.77
2018-11-22T22:58:16.376Z,41.37
2018-11-22T23:00:48.461Z,42.60
2018-11-22T23:03:18.416Z,44.90
2018-11-22T23:05:48.245Z,45.33
2018-11-22T23:08:18.351Z,44.10
2018-11-22T23:10:48.134Z,46.20
2018-11-22T23:13:18.293Z,44.85
2018-11-22T23:15:48.262Z,50.67
2018-11-22T23:18:18.059Z,52.40
2018-11-22T23:20:48.234Z,52.97
2018-11-22T23:23:18.118Z,45.13
2018-11-22T23:25:48.197Z,45.92
2018-11-22T23:28:18.253Z,44.30
2018-11-22T23:30:48.411Z,43.33
2018-11-22T23:33:19.525Z,43.68
2018-11-22T23:35:49.330Z,43.70
2018-11-22T23:38:19.157Z,44.30
2018-11-22T23:40:49.224Z,44.35
2018-11-22T23:43:19.370Z,46.40
2018-11-22T23:45:49.654Z,46.30
2018-11-22T23:48:19.390Z,47.07
2018-11-22T23:50:49.284Z,47.27
2018-11-22T23:53:19.167Z,45.50
2018-11-22T23:55:49.280Z,47.67
2018-11-22T23:58:19.220Z,45.13
